Time;durP1;ratioP1;P1;durP2;ratioP2;P2;SDS_P1;SDS_P2;PMS_P1;PMS_P2;Temp;Humidity;BMP_temperature;BMP_pressure;BME280_temperature;BME280_humidity;BME280_pressure;Samples;Min_cycle;Max_cycle;Signal;HPM_P1;HPM_P2
2022/06/29 00:00:22;;;;;;;4.40;4.20;;;21.50;99.90;;;;;;5078282;28;21208;-78
2022/06/29 00:02:49;;;;;;;4.93;4.60;;;21.40;99.90;;;;;;5080135;28;20634;-78
2022/06/29 00:05:21;;;;;;;8.33;4.97;;;21.30;99.90;;;;;;5061138;28;20603;-77
2022/06/29 00:07:48;;;;;;;4.73;4.53;;;21.30;99.90;;;;;;5060250;28;20618;-78
2022/06/29 00:10:15;;;;;;;4.40;4.30;;;21.20;99.90;;;;;;5061563;28;20705;-78
2022/06/29 00:12:44;;;;;;;5.07;4.60;;;21.20;99.90;;;;;;5064000;28;20693;-78
2022/06/29 00:15:11;;;;;;;4.80;4.60;;;21.10;99.90;;;;;;5064653;28;21231;-78
2022/06/29 00:17:38;;;;;;;8.50;4.83;;;21.10;99.90;;;;;;5063105;28;20650;-78
2022/06/29 00:20:07;;;;;;;4.87;4.77;;;21.10;99.90;;;;;;5081057;28;20602;-78
2022/06/29 00:22:35;;;;;;;5.00;4.70;;;21.00;99.90;;;;;;5081276;28;20609;-78
2022/06/29 00:25:02;;;;;;;5.43;5.03;;;21.00;99.90;;;;;;5081761;28;20623;-78
2022/06/29 00:27:29;;;;;;;4.90;4.70;;;21.00;99.90;;;;;;5082026;28;20693;-78
2022/06/29 00:29:55;;;;;;;5.00;4.80;;;21.00;99.90;;;;;;5047664;28;20697;-78
2022/06/29 00:32:21;;;;;;;4.90;4.80;;;20.90;99.90;;;;;;5081252;28;20613;-78
2022/06/29 00:34:48;;;;;;;4.87;4.67;;;20.90;99.90;;;;;;5064596;28;20590;-78
2022/06/29 00:37:15;;;;;;;5.10;4.63;;;20.80;99.90;;;;;;5063421;28;20658;-78
2022/06/29 00:39:41;;;;;;;5.33;4.83;;;20.80;99.90;;;;;;5080007;28;20594;-79
2022/06/29 00:42:08;;;;;;;4.60;4.40;;;20.80;99.90;;;;;;5046312;28;20617;-78
2022/06/29 00:44:34;;;;;;;4.50;4.40;;;20.80;99.90;;;;;;5045169;28;20678;-78
2022/06/29 00:47:04;;;;;;;5.00;4.70;;;20.70;99.90;;;;;;5063208;28;20606;-79
2022/06/29 00:49:31;;;;;;;5.17;4.80;;;20.70;99.90;;;;;;5063157;28;20621;-78
2022/06/29 00:52:06;;;;;;;4.90;4.70;;;20.70;99.90;;;;;;5080496;28;20736;-78
2022/06/29 00:54:39;;;;;;;4.70;4.50;;;20.70;99.90;;;;;;5078165;28;20590;-79
2022/06/29 00:57:11;;;;;;;5.00;4.80;;;20.70;99.90;;;;;;5078366;28;20607;-79
2022/06/29 00:59:43;;;;;;;5.20;4.90;;;20.70;99.90;;;;;;5056935;28;20700;-79
2022/06/29 01:02:10;;;;;;;4.87;4.57;;;20.70;99.90;;;;;;5059692;28;20630;-78
2022/06/29 01:04:37;;;;;;;4.80;4.70;;;20.70;99.90;;;;;;5059746;28;20623;-78
2022/06/29 01:07:04;;;;;;;5.30;5.10;;;20.80;99.90;;;;;;5062248;28;21199;-79
2022/06/29 01:09:30;;;;;;;4.40;4.30;;;20.70;99.90;;;;;;5063028;28;20598;-79
2022/06/29 01:11:58;;;;;;;5.20;4.80;;;20.70;99.90;;;;;;5062085;28;20670;-78
2022/06/29 01:14:26;;;;;;;4.80;4.53;;;20.60;99.90;;;;;;5060642;28;20614;-78
2022/06/29 01:16:52;;;;;;;4.97;4.77;;;20.70;99.90;;;;;;5062680;28;20615;-78
2022/06/29 01:19:19;;;;;;;5.70;5.20;;;20.70;99.90;;;;;;5063002;28;20661;-78
2022/06/29 01:21:47;;;;;;;4.63;4.53;;;20.70;99.90;;;;;;5030357;28;20694;-79
2022/06/29 01:24:13;;;;;;;5.10;4.70;;;20.70;99.90;;;;;;5062686;28;20615;-79
2022/06/29 01:26:40;;;;;;;5.00;4.80;;;20.70;99.90;;;;;;5042350;28;21197;-78
2022/06/29 01:29:06;;;;;;;6.30;4.70;;;20.70;99.90;;;;;;5060584;28;20622;-78
2022/06/29 01:31:33;;;;;;;5.13;4.93;;;20.70;99.90;;;;;;5060698;28;20615;-77
2022/06/29 01:34:01;;;;;;;4.60;4.50;;;20.70;99.90;;;;;;5060443;28;20611;-79
2022/06/29 01:36:28;;;;;;;4.57;4.27;;;20.80;99.90;;;;;;5060175;28;20619;-78
2022/06/29 01:38:54;;;;;;;6.60;5.10;;;20.70;99.90;;;;;;5042242;28;20701;-78
2022/06/29 01:41:21;;;;;;;5.40;5.00;;;20.80;99.90;;;;;;5058372;28;20604;-77
2022/06/29 01:43:47;;;;;;;5.03;4.83;;;20.70;99.90;;;;;;5059332;28;20620;-78
2022/06/29 01:46:14;;;;;;;5.03;4.43;;;20.70;99.90;;;;;;5060325;28;20622;-78
2022/06/29 01:48:40;;;;;;;5.20;4.80;;;20.70;99.90;;;;;;5058339;28;20950;-79
2022/06/29 01:51:07;;;;;;;5.40;4.97;;;20.70;99.90;;;;;;5060159;28;20689;-78
2022/06/29 01:53:33;;;;;;;5.33;4.60;;;20.70;99.90;;;;;;5058836;28;20977;-78
2022/06/29 01:56:00;;;;;;;4.53;4.40;;;20.70;99.90;;;;;;5041895;28;20685;-78
2022/06/29 01:58:26;;;;;;;4.50;4.40;;;20.70;99.90;;;;;;5040667;28;20669;-78
2022/06/29 02:00:53;;;;;;;4.67;4.37;;;20.70;99.90;;;;;;5058248;28;20738;-78
2022/06/29 02:03:19;;;;;;;4.73;4.30;;;20.70;99.90;;;;;;5060836;28;21180;-78
2022/06/29 02:05:46;;;;;;;4.57;4.37;;;20.60;99.90;;;;;;5042699;28;20614;-79
2022/06/29 02:08:12;;;;;;;5.43;5.17;;;20.60;99.90;;;;;;5061096;28;20985;-78
2022/06/29 02:10:38;;;;;;;4.83;4.50;;;20.60;99.90;;;;;;5062666;28;20615;-78
2022/06/29 02:13:05;;;;;;;5.60;5.10;;;20.60;99.90;;;;;;5059348;28;20727;-78
2022/06/29 02:15:32;;;;;;;5.07;4.60;;;20.60;99.90;;;;;;5058496;28;20749;-79
2022/06/29 02:17:58;;;;;;;4.73;4.53;;;20.50;99.90;;;;;;5060315;28;21022;-78
2022/06/29 02:20:25;;;;;;;5.40;5.10;;;20.50;99.90;;;;;;5059944;28;21242;-78
2022/06/29 02:22:51;;;;;;;5.93;4.80;;;20.50;99.90;;;;;;5057440;28;20680;-79
2022/06/29 02:25:18;;;;;;;4.60;4.37;;;20.50;99.90;;;;;;5059469;28;20603;-78
2022/06/29 02:27:45;;;;;;;4.93;4.73;;;20.50;99.90;;;;;;5041159;28;20623;-78
2022/06/29 02:30:14;;;;;;;4.80;4.60;;;20.50;99.90;;;;;;5058684;28;20611;-78
2022/06/29 02:35:28;;;;;;;5.43;5.13;;;20.50;99.90;;;;;;5060824;28;20595;-78
2022/06/29 02:37:55;;;;;;;5.00;4.80;;;20.40;99.90;;;;;;5059391;28;20654;-78
2022/06/29 02:40:22;;;;;;;4.80;4.60;;;20.40;99.90;;;;;;5060926;28;20599;-79
2022/06/29 02:42:48;;;;;;;4.57;4.27;;;20.40;99.90;;;;;;5058378;28;20615;-78
2022/06/29 02:45:15;;;;;;;4.70;4.50;;;20.40;99.90;;;;;;5058477;28;20663;-77
2022/06/29 02:47:41;;;;;;;4.70;4.50;;;20.30;99.90;;;;;;5058228;28;20589;-79
2022/06/29 02:50:08;;;;;;;4.80;4.40;;;20.30;99.90;;;;;;5040553;28;21268;-79
2022/06/29 02:52:35;;;;;;;4.70;4.50;;;20.30;99.90;;;;;;5059352;28;20615;-77
2022/06/29 02:55:01;;;;;;;5.90;4.90;;;20.20;99.90;;;;;;5056670;28;20627;-78
2022/06/29 02:57:28;;;;;;;4.50;4.30;;;20.20;99.90;;;;;;5056772;28;20622;-78
2022/06/29 02:59:54;;;;;;;4.70;4.50;;;20.20;99.90;;;;;;5065536;28;20642;-78
2022/06/29 03:02:21;;;;;;;5.00;4.77;;;20.10;99.90;;;;;;5078914;28;20598;-78
2022/06/29 03:04:47;;;;;;;5.40;5.10;;;20.10;99.90;;;;;;5078911;28;20636;-78
2022/06/29 03:07:14;;;;;;;5.00;4.80;;;20.10;99.90;;;;;;5045225;28;20939;-78
2022/06/29 03:09:40;;;;;;;5.37;4.97;;;20.00;99.90;;;;;;5061958;28;20629;-78
2022/06/29 03:12:07;;;;;;;5.30;4.90;;;20.00;99.90;;;;;;5060624;28;20622;-78
2022/06/29 03:14:33;;;;;;;7.90;5.47;;;20.00;99.90;;;;;;5043823;28;20615;-79
2022/06/29 03:17:00;;;;;;;5.13;4.87;;;20.00;99.90;;;;;;5061509;28;20621;-77
2022/06/29 03:19:26;;;;;;;5.30;5.00;;;20.00;99.90;;;;;;5060218;28;20662;-78
2022/06/29 03:21:53;;;;;;;5.03;4.80;;;20.10;99.90;;;;;;5044141;28;20598;-78
2022/06/29 03:24:20;;;;;;;5.03;4.73;;;20.10;99.90;;;;;;5078165;28;20641;-78
2022/06/29 03:26:47;;;;;;;5.00;4.70;;;20.00;99.90;;;;;;5060835;28;20959;-77
2022/06/29 03:29:13;;;;;;;5.40;5.10;;;20.00;99.90;;;;;;5060379;28;20625;-78
2022/06/29 03:31:40;;;;;;;4.90;4.70;;;20.00;99.90;;;;;;5078762;28;20625;-78
2022/06/29 03:34:06;;;;;;;5.47;5.00;;;20.10;99.90;;;;;;5063282;28;20591;-78
2022/06/29 03:36:33;;;;;;;4.80;4.50;;;20.10;99.90;;;;;;5063080;28;20625;-79
2022/06/29 03:39:02;;;;;;;4.97;4.57;;;20.00;99.90;;;;;;5046770;28;20710;-78
2022/06/29 03:41:29;;;;;;;6.63;6.10;;;20.00;99.90;;;;;;5062566;28;20625;-78
2022/06/29 03:43:55;;;;;;;5.17;4.67;;;20.10;99.90;;;;;;5061364;28;20614;-77
2022/06/29 03:46:22;;;;;;;4.97;4.57;;;20.10;99.90;;;;;;5058919;28;20573;-78
2022/06/29 03:48:48;;;;;;;5.03;4.60;;;20.10;99.90;;;;;;5079292;28;20614;-78
2022/06/29 03:51:15;;;;;;;6.80;4.70;;;20.10;99.90;;;;;;5062090;28;20621;-78
2022/06/29 03:53:41;;;;;;;4.00;3.80;;;20.10;99.90;;;;;;5045104;28;20652;-78
2022/06/29 03:56:08;;;;;;;4.97;4.50;;;20.20;99.90;;;;;;5062705;28;20607;-78
2022/06/29 03:58:35;;;;;;;4.13;3.97;;;20.10;99.90;;;;;;5044203;28;20661;-78
2022/06/29 04:01:02;;;;;;;8.73;4.30;;;20.10;99.90;;;;;;5078474;28;20657;-79
2022/06/29 04:03:28;;;;;;;4.50;4.10;;;20.10;99.90;;;;;;5077892;28;20611;-78
2022/06/29 04:05:55;;;;;;;4.40;4.20;;;20.10;99.90;;;;;;5059598;28;20965;-78
2022/06/29 04:08:22;;;;;;;4.70;4.40;;;20.10;99.90;;;;;;5041717;28;21187;-79
2022/06/29 04:10:48;;;;;;;4.60;4.20;;;20.10;99.90;;;;;;5045977;28;20660;-79
2022/06/29 04:13:15;;;;;;;4.30;4.20;;;20.10;99.90;;;;;;5059473;28;20598;-78
2022/06/29 04:15:46;;;;;;;5.43;4.90;;;20.10;99.90;;;;;;5030497;28;20613;-78
2022/06/29 04:18:13;;;;;;;4.17;3.83;;;20.10;99.90;;;;;;5060484;28;20626;-77
2022/06/29 04:23:25;;;;;;;4.30;4.10;;;20.20;99.90;;;;;;5079111;28;20642;-78
2022/06/29 04:25:51;;;;;;;3.93;3.63;;;20.20;99.90;;;;;;5079430;28;21215;-78
2022/06/29 04:28:18;;;;;;;6.30;4.07;;;20.20;99.90;;;;;;5079323;28;20609;-78
2022/06/29 04:30:44;;;;;;;5.33;4.37;;;20.30;99.90;;;;;;5079627;28;20602;-78
2022/06/29 04:33:10;;;;;;;7.30;4.30;;;20.30;99.90;;;;;;5059899;28;20697;-78
2022/06/29 04:35:37;;;;;;;4.47;4.17;;;20.30;99.90;;;;;;5079934;28;21211;-78
2022/06/29 04:38:03;;;;;;;4.50;4.10;;;20.30;99.90;;;;;;5079957;28;20657;-78
2022/06/29 04:40:30;;;;;;;4.47;4.10;;;20.40;99.90;;;;;;5064334;28;20610;-78
2022/06/29 04:42:56;;;;;;;4.47;4.10;;;20.40;99.90;;;;;;5063579;28;21033;-78
2022/06/29 04:48:08;;;;;;;4.80;3.93;;;20.40;99.90;;;;;;5079772;28;21142;-77
2022/06/29 04:50:34;;;;;;;6.40;5.33;;;20.50;99.90;;;;;;5063700;28;20598;-77
2022/06/29 04:53:00;;;;;;;5.23;4.80;;;20.50;99.90;;;;;;5047469;28;20614;-77
2022/06/29 04:55:29;;;;;;;4.53;4.17;;;20.60;99.90;;;;;;5046071;28;20618;-78
2022/06/29 04:57:55;;;;;;;4.40;3.53;;;20.70;99.90;;;;;;5047274;28;20610;-78
2022/06/29 05:00:22;;;;;;;5.80;4.60;;;20.80;99.90;;;;;;5060727;28;20665;-78
2022/06/29 05:02:48;;;;;;;3.80;3.37;;;20.90;99.90;;;;;;5062648;28;20607;-78
2022/06/29 05:05:16;;;;;;;4.20;4.00;;;21.00;99.90;;;;;;5044415;28;21277;-78
2022/06/29 05:07:42;;;;;;;4.77;4.17;;;21.00;99.90;;;;;;5044089;28;21192;-78
2022/06/29 05:10:08;;;;;;;7.20;4.40;;;21.10;99.90;;;;;;5061123;28;20973;-79
2022/06/29 05:12:38;;;;;;;4.53;4.13;;;21.20;99.90;;;;;;5060621;28;20713;-78
2022/06/29 05:15:06;;;;;;;3.67;3.50;;;21.40;99.90;;;;;;5061942;28;21157;-78
2022/06/29 05:17:36;;;;;;;7.00;4.13;;;20.90;99.90;;;;;;5060902;28;20615;-78
2022/06/29 05:20:08;;;;;;;4.80;3.90;;;20.80;99.90;;;;;;5062605;28;21103;-78
2022/06/29 05:22:35;;;;;;;3.80;3.50;;;20.90;99.90;;;;;;5062789;28;20614;-78
2022/06/29 05:25:02;;;;;;;7.37;3.50;;;20.90;99.90;;;;;;5062287;28;20603;-78
2022/06/29 05:27:29;;;;;;;5.07;3.40;;;20.90;99.90;;;;;;5044375;28;20615;-79
2022/06/29 05:29:56;;;;;;;3.80;3.60;;;20.60;99.90;;;;;;5062684;28;20625;-78
2022/06/29 05:32:22;;;;;;;6.07;3.50;;;20.70;99.90;;;;;;5063637;28;20618;-78
2022/06/29 05:34:54;;;;;;;6.90;3.40;;;20.80;99.90;;;;;;5048102;28;20663;-78
2022/06/29 05:37:22;;;;;;;3.50;3.30;;;20.90;99.90;;;;;;5063811;28;20607;-77
2022/06/29 05:39:49;;;;;;;4.93;3.50;;;21.00;99.90;;;;;;5057419;28;20718;-76
2022/06/29 05:42:15;;;;;;;4.33;4.03;;;21.10;99.90;;;;;;5057043;28;20610;-76
2022/06/29 05:44:42;;;;;;;3.77;3.57;;;21.20;99.90;;;;;;5055081;28;20975;-76
2022/06/29 05:47:08;;;;;;;3.50;3.20;;;21.00;99.90;;;;;;5055802;28;20615;-74
2022/06/29 05:49:35;;;;;;;5.87;5.43;;;20.90;99.90;;;;;;5038337;28;20611;-76
2022/06/29 05:52:03;;;;;;;59.40;54.03;;;21.20;99.90;;;;;;5055919;28;21157;-76
2022/06/29 05:54:29;;;;;;;14.70;13.60;;;21.50;99.90;;;;;;5056254;28;20629;-76
2022/06/29 05:56:56;;;;;;;6.70;5.37;;;21.50;99.90;;;;;;5054271;28;20623;-76
2022/06/29 05:59:22;;;;;;;5.43;4.87;;;21.60;99.90;;;;;;5056859;28;20678;-76
2022/06/29 06:01:49;;;;;;;5.07;4.57;;;21.70;99.90;;;;;;5075839;28;20567;-76
2022/06/29 06:04:15;;;;;;;5.40;5.00;;;21.70;99.90;;;;;;5058140;28;20613;-76
2022/06/29 06:06:41;;;;;;;5.20;4.80;;;21.60;99.90;;;;;;5075193;28;20656;-76
2022/06/29 06:09:08;;;;;;;5.17;4.87;;;21.70;99.90;;;;;;5075616;28;20614;-76
2022/06/29 06:11:35;;;;;;;5.90;4.63;;;21.70;99.90;;;;;;5076797;28;20614;-75
2022/06/29 06:14:02;;;;;;;5.60;4.80;;;21.80;99.90;;;;;;5059062;28;20633;-78
2022/06/29 06:16:28;;;;;;;4.30;4.00;;;21.80;99.90;;;;;;5058572;28;20618;-73
2022/06/29 06:18:55;;;;;;;4.10;3.80;;;21.80;99.90;;;;;;5075917;28;21044;-74
2022/06/29 06:21:21;;;;;;;4.00;3.60;;;21.60;99.90;;;;;;5075719;28;20724;-75
2022/06/29 06:23:48;;;;;;;7.73;3.50;;;21.70;99.90;;;;;;5057749;28;20614;-75
2022/06/29 06:26:15;;;;;;;5.20;3.83;;;21.40;99.90;;;;;;5075488;28;20602;-75
2022/06/29 06:28:42;;;;;;;3.17;3.07;;;21.10;99.90;;;;;;5057604;28;20614;-77
2022/06/29 06:31:08;;;;;;;2.90;2.80;;;21.10;99.90;;;;;;5040609;28;20682;-75
2022/06/29 06:33:35;;;;;;;9.07;3.50;;;21.10;99.90;;;;;;5057451;28;21172;-74
2022/06/29 06:36:01;;;;;;;6.10;3.63;;;21.20;99.90;;;;;;5040261;28;20743;-77
2022/06/29 06:38:28;;;;;;;4.33;4.03;;;21.30;99.90;;;;;;5057392;28;20212;-76
2022/06/29 06:43:39;;;;;;;3.67;3.47;;;21.20;99.90;;;;;;5075898;28;20578;-78
2022/06/29 06:46:06;;;;;;;4.27;3.70;;;21.40;99.90;;;;;;5077589;28;20632;-78
2022/06/29 06:48:32;;;;;;;5.93;4.63;;;21.60;99.90;;;;;;5058468;28;20622;-76
2022/06/29 06:50:59;;;;;;;4.20;3.80;;;21.60;99.90;;;;;;5078399;28;20622;-78
2022/06/29 06:53:26;;;;;;;9.60;4.20;;;21.90;99.90;;;;;;5062924;28;21133;-78
2022/06/29 06:55:52;;;;;;;4.20;3.80;;;22.10;99.90;;;;;;5062007;28;20614;-78
2022/06/29 06:58:19;;;;;;;5.00;4.30;;;22.40;99.90;;;;;;5079960;28;20977;-77
2022/06/29 07:00:45;;;;;;;5.23;4.67;;;22.60;99.90;;;;;;5074757;28;21220;-76
2022/06/29 07:03:12;;;;;;;5.60;5.30;;;22.60;99.90;;;;;;5076939;28;20606;-78
2022/06/29 07:05:38;;;;;;;5.50;4.77;;;22.90;99.90;;;;;;5064210;28;20625;-79
2022/06/29 07:08:05;;;;;;;4.70;4.40;;;23.20;99.90;;;;;;5080793;28;20607;-80
2022/06/29 07:10:32;;;;;;;6.03;5.43;;;23.40;99.90;;;;;;5080742;28;20625;-77
2022/06/29 07:12:58;;;;;;;5.70;5.30;;;23.10;99.90;;;;;;5059831;28;20967;-77
2022/06/29 07:15:25;;;;;;;5.30;5.00;;;23.40;99.90;;;;;;5058012;28;20617;-75
2022/06/29 07:17:51;;;;;;;9.07;5.30;;;23.50;99.90;;;;;;5075351;28;20724;-76
2022/06/29 07:20:20;;;;;;;6.07;5.57;;;23.80;99.90;;;;;;5074532;28;20650;-73
2022/06/29 07:22:47;;;;;;;5.80;5.60;;;23.70;99.90;;;;;;5074584;28;20602;-74
2022/06/29 07:25:13;;;;;;;5.73;5.33;;;23.60;99.90;;;;;;5056514;28;20618;-76
2022/06/29 07:27:40;;;;;;;6.87;6.40;;;23.90;99.90;;;;;;5074229;28;20618;-74
2022/06/29 07:30:07;;;;;;;6.60;6.10;;;23.60;99.90;;;;;;5056729;28;20954;-75
2022/06/29 07:32:34;;;;;;;7.03;6.43;;;23.10;99.90;;;;;;5074635;28;20618;-76
2022/06/29 07:35:00;;;;;;;5.87;5.60;;;23.30;99.90;;;;;;5040107;28;20633;-74
2022/06/29 07:37:28;;;;;;;5.80;5.50;;;23.10;99.90;;;;;;5056923;28;20634;-75
2022/06/29 07:39:54;;;;;;;6.47;5.93;;;23.10;99.90;;;;;;5074295;28;20649;-74
2022/06/29 07:42:21;;;;;;;7.20;6.50;;;23.40;99.90;;;;;;5056655;28;20602;-74
2022/06/29 07:44:47;;;;;;;7.20;6.83;;;23.50;99.90;;;;;;5074501;28;20610;-73
2022/06/29 07:47:14;;;;;;;7.40;7.00;;;23.90;99.90;;;;;;5073707;28;20613;-74
2022/06/29 07:49:40;;;;;;;7.70;7.10;;;24.60;99.90;;;;;;5073625;28;21237;-74
2022/06/29 07:52:06;;;;;;;6.70;6.20;;;24.40;99.90;;;;;;5055781;28;20610;-74
2022/06/29 07:54:33;;;;;;;7.40;6.73;;;24.30;99.90;;;;;;5073750;28;20970;-75
2022/06/29 07:56:59;;;;;;;7.17;6.70;;;24.00;99.90;;;;;;5073463;28;20623;-74
2022/06/29 07:59:26;;;;;;;6.90;6.50;;;23.90;99.90;;;;;;5073092;28;20674;-75
2022/06/29 08:01:52;;;;;;;6.73;6.33;;;24.30;99.90;;;;;;5073189;28;20617;-74
2022/06/29 08:04:19;;;;;;;6.73;6.43;;;24.40;99.90;;;;;;5038299;28;20614;-73
2022/06/29 08:06:45;;;;;;;6.27;5.97;;;24.10;99.90;;;;;;5055505;28;20617;-74
2022/06/29 08:09:12;;;;;;;7.40;6.80;;;24.00;99.90;;;;;;5038409;28;20629;-75
2022/06/29 08:11:38;;;;;;;6.80;6.47;;;24.10;99.90;;;;;;5056010;28;20611;-75
2022/06/29 08:14:05;;;;;;;6.43;6.00;;;24.40;99.90;;;;;;5073774;28;20621;-76
2022/06/29 08:16:31;;;;;;;6.87;6.40;;;24.60;99.90;;;;;;5055052;28;20625;-75
2022/06/29 08:18:58;;;;;;;7.13;6.83;;;24.40;99.90;;;;;;5055489;28;20670;-74
2022/06/29 08:21:25;;;;;;;6.47;6.07;;;24.30;99.90;;;;;;5073381;28;20613;-74
2022/06/29 08:23:51;;;;;;;7.20;6.60;;;24.10;99.90;;;;;;5073391;28;20630;-75
2022/06/29 08:26:18;;;;;;;6.27;5.97;;;24.50;99.90;;;;;;5056214;28;20609;-74
2022/06/29 08:28:44;;;;;;;6.40;6.00;;;24.50;99.90;;;;;;5074348;28;20613;-74
2022/06/29 08:31:11;;;;;;;8.50;6.20;;;24.50;99.90;;;;;;5073894;28;21242;-75
2022/06/29 08:33:37;;;;;;;6.60;6.20;;;24.50;99.90;;;;;;5055844;28;20620;-74
2022/06/29 08:36:04;;;;;;;6.83;6.43;;;24.50;99.90;;;;;;5056498;28;20617;-74
2022/06/29 08:38:31;;;;;;;6.77;6.47;;;25.00;99.90;;;;;;5074059;28;20618;-73
2022/06/29 08:40:57;;;;;;;6.77;6.30;;;25.40;99.90;;;;;;5073429;28;20610;-73
2022/06/29 08:43:24;;;;;;;6.83;6.20;;;25.60;99.90;;;;;;5055842;28;20982;-75
2022/06/29 08:45:52;;;;;;;6.97;6.50;;;26.10;99.90;;;;;;5073812;28;20606;-73
2022/06/29 08:48:19;;;;;;;6.37;6.13;;;25.60;99.90;;;;;;5074219;28;20621;-77
2022/06/29 08:50:54;;;;;;;6.60;6.00;;;26.00;99.90;;;;;;5039688;28;20629;-74
2022/06/29 08:53:23;;;;;;;7.13;6.73;;;26.30;99.90;;;;;;5073245;28;20618;-74
2022/06/29 08:55:52;;;;;;;7.93;6.70;;;26.40;99.90;;;;;;5073863;28;20615;-76
2022/06/29 08:58:24;;;;;;;7.60;7.10;;;26.10;99.90;;;;;;5073579;28;20607;-77
2022/06/29 09:00:52;;;;;;;6.60;6.20;;;25.80;99.90;;;;;;5073641;28;20665;-75
2022/06/29 09:03:21;;;;;;;6.80;6.50;;;26.10;99.90;;;;;;5056200;28;20614;-76
2022/06/29 09:05:54;;;;;;;6.40;5.90;;;26.20;99.90;;;;;;5073438;28;20617;-77
2022/06/29 09:08:21;;;;;;;6.37;5.97;;;25.70;99.90;;;;;;5056024;28;20614;-77
2022/06/29 09:10:49;;;;;;;7.23;6.80;;;25.80;99.90;;;;;;5073353;28;20618;-76
2022/06/29 09:13:23;;;;;;;6.33;6.03;;;25.60;99.90;;;;;;5072491;28;20611;-76
2022/06/29 09:15:59;;;;;;;6.23;5.93;;;25.70;99.90;;;;;;5073493;28;21171;-77
2022/06/29 09:18:30;;;;;;;7.90;7.40;;;25.70;99.90;;;;;;5073616;28;20614;-78
2022/06/29 09:21:02;;;;;;;8.13;7.73;;;25.80;99.90;;;;;;5075597;28;20745;-78
2022/06/29 09:23:30;;;;;;;7.90;7.40;;;25.50;99.90;;;;;;5078707;28;20675;-78
2022/06/29 09:25:57;;;;;;;6.93;6.47;;;25.30;99.90;;;;;;5078710;28;20603;-77
2022/06/29 09:28:26;;;;;;;7.80;7.13;;;25.30;99.90;;;;;;5076945;28;20617;-77
2022/06/29 09:30:54;;;;;;;7.20;6.90;;;25.30;99.90;;;;;;5077362;28;20989;-77
2022/06/29 09:33:23;;;;;;;7.93;7.33;;;25.30;99.90;;;;;;5076931;28;20610;-77
2022/06/29 09:36:09;;;;;;;7.63;7.13;;;25.60;99.90;;;;;;5059485;28;20683;-77
2022/06/29 09:38:37;;;;;;;7.40;7.07;;;26.20;99.90;;;;;;5077405;28;20610;-77
2022/06/29 09:41:08;;;;;;;8.40;7.10;;;26.10;99.90;;;;;;5059622;28;20654;-77
2022/06/29 09:43:39;;;;;;;8.03;7.33;;;26.00;99.90;;;;;;5076493;28;21014;-77
2022/06/29 09:46:07;;;;;;;7.50;7.07;;;26.00;99.90;;;;;;5080879;28;20551;-78
2022/06/29 09:48:36;;;;;;;7.90;7.43;;;26.00;99.90;;;;;;5059610;28;20630;-78
2022/06/29 09:54:07;;;;;;;10.30;7.07;;;26.30;99.90;;;;;;5068166;28;20574;-78
2022/06/29 09:56:35;;;;;;;7.60;7.10;;;26.40;99.90;;;;;;5051012;28;20686;-79
2022/06/29 09:59:05;;;;;;;7.47;7.17;;;26.40;99.90;;;;;;5065429;28;20710;-78
2022/06/29 10:04:18;;;;;;;7.50;7.20;;;26.60;99.90;;;;;;5078285;28;20583;-77
2022/06/29 10:06:45;;;;;;;7.20;6.80;;;26.10;99.90;;;;;;5061095;28;20606;-77
2022/06/29 10:09:13;;;;;;;8.43;8.03;;;26.50;99.90;;;;;;5060208;28;20606;-77
2022/06/29 10:14:59;;;;;;;8.10;7.50;;;26.80;99.90;;;;;;5080042;28;20617;-78
2022/06/29 10:17:46;;;;;;;8.20;7.60;;;27.20;99.90;;;;;;5083142;28;21218;-78
2022/06/29 10:20:33;;;;;;;7.63;7.07;;;27.20;99.90;;;;;;5080988;28;20697;-78
2022/06/29 10:22:59;;;;;;;7.63;7.10;;;26.50;99.90;;;;;;5084362;28;20598;-78
2022/06/29 10:25:29;;;;;;;7.67;7.07;;;26.10;99.90;;;;;;5051118;28;20698;-77
2022/06/29 10:28:19;;;;;;;8.10;7.43;;;26.60;99.90;;;;;;5049967;28;20658;-76
2022/06/29 10:30:49;;;;;;;7.83;7.17;;;26.50;99.90;;;;;;5063731;28;20621;-78
2022/06/29 10:33:31;;;;;;;7.27;6.87;;;26.40;99.90;;;;;;5045762;28;20713;-77
2022/06/29 10:36:05;;;;;;;7.60;7.27;;;26.40;99.90;;;;;;5065028;28;20621;-78
2022/06/29 10:38:58;;;;;;;7.97;7.27;;;26.40;99.90;;;;;;5065775;28;20725;-78
2022/06/29 10:44:11;;;;;;;6.80;6.40;;;26.10;99.90;;;;;;5068229;28;20654;-78
2022/06/29 10:46:57;;;;;;;7.43;7.13;;;26.10;99.90;;;;;;5046595;28;20625;-77
2022/06/29 10:49:24;;;;;;;7.10;6.90;;;26.10;99.90;;;;;;5084235;28;20627;-77
2022/06/29 10:51:53;;;;;;;7.90;7.50;;;26.40;99.90;;;;;;5064094;28;20625;-77
2022/06/29 10:54:30;;;;;;;10.43;8.33;;;26.80;99.90;;;;;;5062784;28;20634;-78
2022/06/29 10:56:57;;;;;;;7.90;7.30;;;26.70;99.90;;;;;;5065502;28;20610;-78
2022/06/29 10:59:37;;;;;;;7.97;7.30;;;26.90;99.90;;;;;;5081069;28;21092;-79
2022/06/29 11:02:08;;;;;;;7.77;7.40;;;27.10;99.90;;;;;;5062478;28;20626;-78
2022/06/29 11:04:35;;;;;;;7.60;7.10;;;27.40;99.90;;;;;;5080433;28;20776;-80
2022/06/29 11:12:51;;;;;;;7.50;7.10;;;27.90;99.90;;;;;;5081702;28;20665;-78
2022/06/29 11:15:49;;;;;;;7.33;7.03;;;28.50;99.90;;;;;;5048105;28;20710;-79
2022/06/29 11:18:18;;;;;;;8.70;7.83;;;28.40;99.90;;;;;;5080599;28;21223;-77
2022/06/29 11:20:48;;;;;;;7.47;6.97;;;27.90;99.90;;;;;;5081114;28;20656;-78
2022/06/29 11:23:19;;;;;;;7.93;7.43;;;28.10;99.90;;;;;;5059318;28;20618;-76
2022/06/29 11:25:48;;;;;;;7.43;6.83;;;27.70;99.90;;;;;;5075619;28;20690;-77
2022/06/29 11:28:20;;;;;;;9.03;8.57;;;27.30;99.90;;;;;;5056992;28;20611;-77
2022/06/29 11:30:59;;;;;;;7.63;7.23;;;27.40;99.90;;;;;;5076309;28;21164;-77
2022/06/29 11:33:28;;;;;;;8.33;8.03;;;27.70;99.90;;;;;;5077651;28;20727;-77
2022/06/29 11:35:55;;;;;;;9.00;8.50;;;28.40;99.90;;;;;;5077369;28;20618;-77
2022/06/29 11:38:26;;;;;;;9.60;8.67;;;29.20;99.90;;;;;;5077734;28;20606;-76
2022/06/29 11:40:54;;;;;;;9.60;9.10;;;29.10;99.90;;;;;;5076990;28;21028;-77
2022/06/29 11:43:21;;;;;;;11.00;10.10;;;28.60;99.90;;;;;;5058669;28;20610;-77
2022/06/29 11:45:48;;;;;;;11.57;10.90;;;29.50;99.90;;;;;;5075519;28;20614;-78
2022/06/29 11:48:23;;;;;;;10.13;9.33;;;29.70;99.90;;;;;;5076186;28;20605;-78
2022/06/29 11:50:51;;;;;;;9.40;8.90;;;29.10;99.90;;;;;;5077771;28;20629;-78
2022/06/29 11:53:38;;;;;;;9.40;8.90;;;28.70;99.90;;;;;;5079177;28;20681;-78
2022/06/29 11:56:10;;;;;;;9.37;8.67;;;28.80;99.90;;;;;;5077856;28;20610;-77
2022/06/29 11:58:39;;;;;;;9.10;8.50;;;28.50;99.90;;;;;;5059150;28;20614;-78
2022/06/29 12:01:16;;;;;;;8.77;8.37;;;29.10;99.90;;;;;;5077604;28;20662;-78
2022/06/29 12:03:53;;;;;;;8.53;8.10;;;29.60;99.90;;;;;;5061268;28;21148;-78
2022/06/29 12:06:22;;;;;;;9.63;9.03;;;29.30;99.90;;;;;;5060203;28;20614;-78
2022/06/29 12:08:50;;;;;;;9.20;8.80;;;29.10;99.90;;;;;;5061990;28;21173;-79
2022/06/29 12:11:21;;;;;;;9.10;8.57;;;29.30;99.90;;;;;;5078371;28;20606;-78
2022/06/29 12:13:49;;;;;;;9.80;9.27;;;29.50;99.90;;;;;;5077291;28;20623;-79
2022/06/29 12:16:17;;;;;;;9.93;9.33;;;29.90;99.90;;;;;;5077707;28;21000;-78
2022/06/29 12:18:43;;;;;;;9.83;8.90;;;30.50;99.90;;;;;;5059744;28;20610;-78
2022/06/29 12:21:10;;;;;;;10.00;9.20;;;30.70;99.90;;;;;;5077056;28;21044;-79
2022/06/29 12:23:37;;;;;;;9.37;8.77;;;30.90;99.90;;;;;;5040400;28;20607;-77
2022/06/29 12:26:04;;;;;;;9.57;8.97;;;30.50;99.90;;;;;;5075847;28;20606;-77
2022/06/29 12:28:30;;;;;;;9.63;9.23;;;30.50;99.90;;;;;;5040916;28;20615;-77
2022/06/29 12:31:01;;;;;;;9.57;8.90;;;30.30;99.90;;;;;;5075967;28;20637;-78
2022/06/29 12:33:28;;;;;;;10.00;9.50;;;30.10;99.90;;;;;;5042991;28;20709;-79
2022/06/29 12:35:54;;;;;;;9.50;9.10;;;30.80;99.90;;;;;;5060996;28;21168;-79
2022/06/29 12:38:21;;;;;;;9.90;9.40;;;30.60;99.90;;;;;;5061331;28;20611;-78
2022/06/29 12:40:47;;;;;;;10.73;10.23;;;30.90;99.90;;;;;;5043465;28;20661;-78
2022/06/29 12:43:13;;;;;;;10.23;9.63;;;31.00;99.90;;;;;;5060833;28;20649;-78
2022/06/29 12:45:40;;;;;;;10.10;9.50;;;31.10;99.90;;;;;;5078523;28;20611;-78
2022/06/29 12:48:07;;;;;;;9.70;9.30;;;32.00;99.90;;;;;;5079006;28;20990;-78
2022/06/29 12:50:33;;;;;;;10.63;10.13;;;31.60;99.90;;;;;;5059773;28;21283;-79
2022/06/29 12:53:00;;;;;;;11.20;10.37;;;32.20;99.90;;;;;;5077792;28;20617;-79
2022/06/29 12:55:26;;;;;;;10.47;9.87;;;31.70;99.90;;;;;;5078138;28;20617;-78
2022/06/29 12:57:52;;;;;;;10.53;10.10;;;32.20;99.90;;;;;;5080963;28;21015;-78
2022/06/29 13:00:19;;;;;;;9.60;9.20;;;32.60;99.90;;;;;;5080697;28;20660;-78
2022/06/29 13:02:45;;;;;;;10.63;10.13;;;34.30;99.90;;;;;;5061243;28;20639;-77
2022/06/29 13:05:12;;;;;;;11.10;10.60;;;32.40;99.90;;;;;;5044730;28;20621;-78
2022/06/29 13:07:38;;;;;;;10.63;10.13;;;32.20;99.90;;;;;;5079058;28;20587;-78
2022/06/29 13:10:06;;;;;;;10.87;10.03;;;31.70;99.90;;;;;;5080120;28;20702;-78
2022/06/29 13:12:33;;;;;;;10.40;9.90;;;31.50;99.90;;;;;;5061266;28;20610;-77
2022/06/29 13:15:00;;;;;;;11.17;10.30;;;31.40;99.90;;;;;;5044202;28;20614;-78
2022/06/29 13:17:26;;;;;;;10.57;10.07;;;32.40;99.90;;;;;;5060283;28;20656;-78